Huvudsida
METAR-TAF:

METAR-TAF

Flygplatser :

Berlin-Tegels flygplats

Berlin, Tyskland

latitud: 52-34N, longitud: 013-19E, höjd: 37 m

Aktuellt väderrapport

Denna rapport gjordes för 39 minuter sedan, klockan 19:50 UTC
Vind 11 kt från syd/sydost
Temperatur 3°C
Fuktighet 81%
Tryck 1007 hPa
Sikt 10 km eller mer
Inga moln under 1 500 m eller inga cumulonimbus

METAR: EDDT 111950Z 15011KT CAVOK 03/00 Q1007 NOSIG

Tid: 21:29 (20:29 UTC)

Väderprognos

Denna rapport gjordes för 3 timmar och 29 minuter sedan, klockan 17:00 UTC
Prognos gäller från 11 kl. 18 UTC till 12 kl. 18 UTC
Vind 7 kt från syd/sydost
Sikt 10 km eller mer
Inga moln under 1 500 m eller inga cumulonimbus
Blir
från 12 kl. 08 UTC till 12 kl. 10 UTC
Vind 9 kt från syd/sydväst

TAF: EDDT 111700Z 1118/1218 15007KT CAVOK BECMG 1208/1210 21009KT

Aktuella väderrapporter och prognoser från 4000 flygplatser (METAR- och TAF-rapporter).

De tillgängliga stationerna syns som gula och röda prickar på kartan.

För musen över prickarna för att se namnen på stationerna.

Klicka sedan för att få väderrapporter och prognoser.

För att ändra kartan: Klicka på de gröna knapparna med ett svart kors på för att zooma in; den gröna knappen med ett streck på för att zooma ut; eller på de gröna pilarna för angränsande kartor.


METAR-TAF: